^^
Grace C. Lehan Memorial Weather Station Historical Data
Daily Summary for November 16, 2021 Units:  Both    English   Metric
Daily Weekly Monthly Yearly
  High: Low: Average:
Temperature: 49.7 °F /  9.8 °C 33.5 °F /  0.8 °C 42.2 °F /  5.7 °C
Dew Point: 33.3 °F /  0.7 °C 28.8 °F /  -1.8 °C 30.9 °F /  -0.6 °C
Humidity: 87% 50% 65%
Wind Speed: 11mph /  17.7km/h - 1.7mph /  2.7km/h
Wind Gust: 20mph /  32.2km/h - -
Wind- - WNW
Pressure: 30.22 in /  1023.2 hPa 29.89 in /  1012.1 hPa -
Precipitation: 0.00 in /  0 mm    
 
 
Tabular Data for November 16, 2021
Time Temperature Dew Point Pressure Wind Wind Speed Wind Gust Humidity Rainfall Rate (Hourly) solar
00:04 38.3 °F /  3.5 °C 32.1 °F /  0.1 °C 29.89in /  1012.1hPa WSW 0.3mph /  0.5km/h 3mph /  4.8km/h 78% 0.00in /  0mm 0 W/m2
00:09 38.3 °F /  3.5 °C 32.2 °F /  0.1 °C 29.90in /  1012.4hPa WSW 0.1mph /  0.2km/h 1mph /  1.6km/h 78.4% 0.00in /  0mm 0 W/m2
00:14 38.3 °F /  3.5 °C 32.4 °F /  0.2 °C 29.90in /  1012.4hPa WSW 0.4mph /  0.6km/h 7mph /  11.3km/h 79% 0.00in /  0mm 0 W/m2
00:19 38.3 °F /  3.5 °C 32.4 °F /  0.2 °C 29.90in /  1012.4hPa Calm   7mph /  11.3km/h 79% 0.00in /  0mm 0 W/m2
00:24 38.4 °F /  3.6 °C 32.4 °F /  0.2 °C 29.90in /  1012.4hPa Calm   7mph /  11.3km/h 79% 0.00in /  0mm 0 W/m2
00:29 38.4 °F /  3.6 °C 32.5 °F /  0.3 °C 29.90in /  1012.4hPa Calm   7mph /  11.3km/h 79% 0.00in /  0mm 0 W/m2
00:34 38.4 °F /  3.6 °C 32.5 °F /  0.3 °C 29.90in /  1012.4hPa Calm   7mph /  11.3km/h 79% 0.00in /  0mm 0 W/m2
00:39 38.4 °F /  3.6 °C 32.5 °F /  0.3 °C 29.91in /  1012.8hPa Calm     79% 0.00in /  0mm 0 W/m2
00:44 38.4 °F /  3.6 °C 32.5 °F /  0.3 °C 29.91in /  1012.8hPa Calm     79% 0.00in /  0mm 0 W/m2
00:49 38.4 °F /  3.6 °C 32.5 °F /  0.3 °C 29.91in /  1012.8hPa Calm     79% 0.00in /  0mm 0 W/m2
00:54 38.5 °F /  3.6 °C 32.5 °F /  0.3 °C 29.91in /  1012.8hPa Calm     79% 0.00in /  0mm 0 W/m2
00:59 38.5 °F /  3.6 °C 32.6 °F /  0.3 °C 29.91in /  1012.8hPa Calm     79% 0.00in /  0mm 0 W/m2
01:04 38.6 °F /  3.7 °C 32.8 °F /  0.4 °C 29.91in /  1012.8hPa WSW 0.1mph /  0.2km/h 2mph /  3.2km/h 79.6% 0.00in /  0mm 0 W/m2
01:09 38.6 °F /  3.7 °C 33 °F /  0.6 °C 29.92in /  1013.1hPa WSW 0.7mph /  1.1km/h 3mph /  4.8km/h 80% 0.00in /  0mm 0 W/m2
01:14 38.6 °F /  3.7 °C 32.8 °F /  0.4 °C 29.92in /  1013.1hPa WSW 0.5mph /  0.8km/h 9mph /  14.5km/h 79.4% 0.00in /  0mm 0 W/m2
01:19 38.7 °F /  3.7 °C 32.8 °F /  0.4 °C 29.92in /  1013.1hPa WSW 0.4mph /  0.6km/h 9mph /  14.5km/h 79% 0.00in /  0mm 0 W/m2
01:24 38.8 °F /  3.8 °C 32.8 °F /  0.4 °C 29.92in /  1013.1hPa WSW 0.1mph /  0.2km/h 9mph /  14.5km/h 78.8% 0.00in /  0mm 0 W/m2
01:29 38.9 °F /  3.8 °C 33 °F /  0.6 °C 29.92in /  1013.1hPa Calm   9mph /  14.5km/h 79% 0.00in /  0mm 0 W/m2
01:34 38.9 °F /  3.8 °C 33 °F /  0.6 °C 29.92in /  1013.1hPa Calm   9mph /  14.5km/h 79% 0.00in /  0mm 0 W/m2
01:39 38.9 °F /  3.8 °C 33 °F /  0.6 °C 29.92in /  1013.1hPa Calm   1mph /  1.6km/h 79% 0.00in /  0mm 0 W/m2
01:44 39 °F /  3.9 °C 33 °F /  0.6 °C 29.93in /  1013.4hPa Calm   1mph /  1.6km/h 79% 0.00in /  0mm 0 W/m2
01:49 39 °F /  3.9 °C 33 °F /  0.6 °C 29.93in /  1013.4hPa Calm   1mph /  1.6km/h 79% 0.00in /  0mm 0 W/m2
01:54 38.9 °F /  3.8 °C 33.1 °F /  0.6 °C 29.93in /  1013.4hPa Calm   1mph /  1.6km/h 79.2% 0.00in /  0mm 0 W/m2
01:59 38.9 °F /  3.8 °C 33.3 °F /  0.7 °C 29.93in /  1013.4hPa Calm   1mph /  1.6km/h 80% 0.00in /  0mm 0 W/m2
02:04 38.9 °F /  3.8 °C 33.3 °F /  0.7 °C 29.94in /  1013.8hPa Calm   1mph /  1.6km/h 80% 0.00in /  0mm 0 W/m2
02:09 38.9 °F /  3.8 °C 33.2 °F /  0.7 °C 29.93in /  1013.4hPa Calm     80% 0.00in /  0mm 0 W/m2
02:11 38.8 °F /  3.8 °C 33.2 °F /  0.7 °C 29.93in /  1013.4hPa Calm     80% 0.00in /  0mm 0 W/m2
02:30 38.6 °F /  3.7 °C 33.3 °F /  0.7 °C 29.93in /  1013.4hPa Calm   1mph /  1.6km/h 81% 0.00in /  0mm 0 W/m2
03:00 38.3 °F /  3.5 °C 32.7 °F /  0.4 °C 29.93in /  1013.4hPa Calm   4mph /  6.4km/h 80% 0.00in /  0mm 0 W/m2
03:30 38.6 °F /  3.7 °C 30.4 °F /  -0.9 °C 29.94in /  1013.8hPa WNW 3mph /  4.8km/h 17mph /  27.4km/h 72% 0.00in /  0mm 0 W/m2
04:04 38.9 °F /  3.8 °C 29.7 °F /  -1.3 °C 29.95in /  1014.1hPa WNW 2.8mph /  4.5km/h 17mph /  27.4km/h 69.3% 0.00in /  0mm 0 W/m2
04:09 38.9 °F /  3.8 °C 29.2 °F /  -1.6 °C 29.96in /  1014.4hPa West 2.9mph /  4.7km/h 14mph /  22.5km/h 68% 0.00in /  0mm 0 W/m2
04:14 39.1 °F /  3.9 °C 29.1 °F /  -1.6 °C 29.96in /  1014.4hPa WNW 4.9mph /  7.9km/h 14mph /  22.5km/h 67.2% 0.00in /  0mm 0 W/m2
04:19 39.1 °F /  3.9 °C 29.1 °F /  -1.6 °C 29.96in /  1014.4hPa WNW 2.8mph /  4.5km/h 14mph /  22.5km/h 67% 0.00in /  0mm 0 W/m2
04:24 39.1 °F /  3.9 °C 29.1 °F /  -1.6 °C 29.97in /  1014.8hPa West 1.2mph /  1.9km/h 14mph /  22.5km/h 67% 0.00in /  0mm 0 W/m2
04:29 39 °F /  3.9 °C 29 °F /  -1.7 °C 29.97in /  1014.8hPa WNW 2.4mph /  3.9km/h 14mph /  22.5km/h 67% 0.00in /  0mm 0 W/m2
04:34 38.9 °F /  3.8 °C 28.9 °F /  -1.7 °C 29.97in /  1014.8hPa NW 0.2mph /  0.3km/h 14mph /  22.5km/h 67% 0.00in /  0mm 0 W/m2
04:39 38.8 °F /  3.8 °C 29 °F /  -1.7 °C 29.97in /  1014.8hPa WNW 0.6mph /  1km/h 4mph /  6.4km/h 67.6% 0.00in /  0mm 0 W/m2
04:44 38.6 °F /  3.7 °C 29 °F /  -1.7 °C 29.98in /  1015.1hPa WNW 0.6mph /  1km/h 5mph /  8km/h 68% 0.00in /  0mm 0 W/m2
04:49 38.4 °F /  3.6 °C 28.8 °F /  -1.8 °C 29.98in /  1015.1hPa WNW 1.4mph /  2.3km/h 6mph /  9.7km/h 68% 0.00in /  0mm 0 W/m2
04:54 38.3 °F /  3.5 °C 29 °F /  -1.7 °C 29.98in /  1015.1hPa West 1.5mph /  2.4km/h 9mph /  14.5km/h 69% 0.00in /  0mm 0 W/m2
04:59 38.2 °F /  3.4 °C 28.9 °F /  -1.7 °C 29.98in /  1015.1hPa West 1.4mph /  2.3km/h 9mph /  14.5km/h 69% 0.00in /  0mm 0 W/m2
05:04 38.1 °F /  3.4 °C 29.1 °F /  -1.6 °C 29.98in /  1015.1hPa West 0.1mph /  0.2km/h 9mph /  14.5km/h 69.8% 0.00in /  0mm 0 W/m2
05:09 38 °F /  3.3 °C 28.9 °F /  -1.7 °C 29.98in /  1015.1hPa West 0.2mph /  0.3km/h 3mph /  4.8km/h 69.6% 0.00in /  0mm 0 W/m2
05:14 37.9 °F /  3.3 °C 29 °F /  -1.7 °C 29.99in /  1015.5hPa WNW 0.5mph /  0.8km/h 4mph /  6.4km/h 70% 0.00in /  0mm 0 W/m2
05:19 37.8 °F /  3.2 °C 28.9 °F /  -1.7 °C 29.99in /  1015.5hPa Calm   4mph /  6.4km/h 70% 0.00in /  0mm 0 W/m2
05:24 37.6 °F /  3.1 °C 29 °F /  -1.7 °C 29.99in /  1015.5hPa NW 2.1mph /  3.4km/h 12mph /  19.3km/h 70.8% 0.00in /  0mm 0 W/m2
05:29 37.6 °F /  3.1 °C 29.1 °F /  -1.6 °C 29.99in /  1015.5hPa WNW 2.3mph /  3.7km/h 12mph /  19.3km/h 71% 0.00in /  0mm 0 W/m2
05:34 37.6 °F /  3.1 °C 29.1 °F /  -1.6 °C 30.00in /  1015.8hPa WNW 3.5mph /  5.6km/h 12mph /  19.3km/h 71% 0.00in /  0mm 0 W/m2
05:39 37.7 °F /  3.2 °C 29.1 °F /  -1.6 °C 30.00in /  1015.8hPa WNW 5.5mph /  8.9km/h 16mph /  25.7km/h 71% 0.00in /  0mm 0 W/m2
05:44 37.8 °F /  3.2 °C 29.1 °F /  -1.6 °C 30.00in /  1015.8hPa WNW 2.9mph /  4.7km/h 16mph /  25.7km/h 70.4% 0.00in /  0mm 0 W/m2
05:49 37.9 °F /  3.3 °C 29.1 °F /  -1.6 °C 30.00in /  1015.8hPa WNW 4.8mph /  7.7km/h 16mph /  25.7km/h 70.2% 0.00in /  0mm 0 W/m2
05:54 38 °F /  3.3 °C 29.1 °F /  -1.6 °C 30.00in /  1015.8hPa WNW 2.2mph /  3.5km/h 16mph /  25.7km/h 70% 0.00in /  0mm 0 W/m2
05:59 38 °F /  3.3 °C 29.1 °F /  -1.6 °C 30.00in /  1015.8hPa WNW 2.2mph /  3.5km/h 16mph /  25.7km/h 70% 0.00in /  0mm 0 W/m2
06:04 38 °F /  3.3 °C 29.1 °F /  -1.6 °C 30.00in /  1015.8hPa WNW 2.8mph /  4.5km/h 16mph /  25.7km/h 70% 0.00in /  0mm 0 W/m2
06:06 37.9 °F /  3.3 °C 29 °F /  -1.7 °C 30.00in /  1015.8hPa WNW 1.2mph /  1.9km/h 13mph /  20.9km/h 70% 0.00in /  0mm 0 W/m2
06:30 37.4 °F /  3 °C 28.9 °F /  -1.7 °C 30.00in /  1015.8hPa WNW 1mph /  1.6km/h 13mph /  20.9km/h 71% 0.00in /  0mm 0 W/m2
07:00 36.9 °F /  2.7 °C 29.1 °F /  -1.6 °C 30.01in /  1016.1hPa West 1mph /  1.6km/h 8mph /  12.9km/h 73% 0.00in /  0mm 5 W/m2
07:30 37.8 °F /  3.2 °C 29.6 °F /  -1.3 °C 30.03in /  1016.8hPa WNW 2mph /  3.2km/h 12mph /  19.3km/h 72% 0.00in /  0mm 23 W/m2
08:04 39.7 °F /  4.3 °C 30.8 °F /  -0.7 °C 30.04in /  1017.2hPa WSW 2mph /  3.2km/h 12mph /  19.3km/h 70.2% 0.00in /  0mm 186 W/m2
08:09 40.3 °F /  4.6 °C 31.3 °F /  -0.4 °C 30.04in /  1017.2hPa WSW 1.1mph /  1.8km/h 7mph /  11.3km/h 69.8% 0.00in /  0mm 202 W/m2
08:14 41.1 °F /  5.1 °C 32 °F /  0 °C 30.04in /  1017.2hPa West 2.1mph /  3.4km/h 11mph /  17.7km/h 69.7% 0.00in /  0mm 248 W/m2
08:19 42 °F /  5.6 °C 32 °F /  0 °C 30.04in /  1017.2hPa West 1.7mph /  2.7km/h 11mph /  17.7km/h 67.3% 0.00in /  0mm 269 W/m2
08:24 42.8 °F /  6 °C 32.3 °F /  0.2 °C 30.05in /  1017.5hPa West 1.1mph /  1.8km/h 11mph /  17.7km/h 66.2% 0.00in /  0mm 281 W/m2
08:29 43.5 °F /  6.4 °C 32.5 °F /  0.3 °C 30.04in /  1017.2hPa WNW 2.4mph /  3.9km/h 12mph /  19.3km/h 65% 0.00in /  0mm 290 W/m2
08:34 43.9 °F /  6.6 °C 32.3 °F /  0.2 °C 30.05in /  1017.5hPa West 5.6mph /  9km/h 15mph /  24.1km/h 63.3% 0.00in /  0mm 301 W/m2
08:39 44 °F /  6.7 °C 32 °F /  0 °C 30.05in /  1017.5hPa WNW 4.3mph /  6.9km/h 15mph /  24.1km/h 62.3% 0.00in /  0mm 309 W/m2
08:44 44.2 °F /  6.8 °C 32.3 °F /  0.2 °C 30.05in /  1017.5hPa West 5.8mph /  9.3km/h 18mph /  29km/h 62.8% 0.00in /  0mm 320 W/m2
08:49 44.3 °F /  6.8 °C 32.2 °F /  0.1 °C 30.05in /  1017.5hPa WNW 4.6mph /  7.4km/h 18mph /  29km/h 62.2% 0.00in /  0mm 330 W/m2
08:54 44.3 °F /  6.8 °C 32.1 °F /  0.1 °C 30.05in /  1017.5hPa WNW 5.9mph /  9.5km/h 18mph /  29km/h 61.8% 0.00in /  0mm 334 W/m2
08:59 44.2 °F /  6.8 °C 31.6 °F /  -0.2 °C 30.05in /  1017.5hPa WNW 4.7mph /  7.6km/h 18mph /  29km/h 61% 0.00in /  0mm 341 W/m2
09:04 44 °F /  6.7 °C 31.4 °F /  -0.3 °C 30.05in /  1017.5hPa West 7.7mph /  12.4km/h 18mph /  29km/h 61% 0.00in /  0mm 264 W/m2
09:09 43.6 °F /  6.4 °C 31.3 °F /  -0.4 °C 30.05in /  1017.5hPa WNW 5.1mph /  8.2km/h 18mph /  29km/h 61.6% 0.00in /  0mm 70 W/m2
09:14 43.3 °F /  6.3 °C 31.4 °F /  -0.3 °C 30.05in /  1017.5hPa West 3.4mph /  5.5km/h 18mph /  29km/h 62.5% 0.00in /  0mm 116 W/m2
09:19 43.1 °F /  6.2 °C 31.4 °F /  -0.3 °C 30.05in /  1017.5hPa WNW 3.5mph /  5.6km/h 18mph /  29km/h 63% 0.00in /  0mm 276 W/m2
09:24 43.2 °F /  6.2 °C 31.6 °F /  -0.2 °C 30.05in /  1017.5hPa West 4.5mph /  7.2km/h 18mph /  29km/h 63.3% 0.00in /  0mm 295 W/m2
09:29 43.3 °F /  6.3 °C 31.4 °F /  -0.3 °C 30.06in /  1017.8hPa WNW 7mph /  11.3km/h 18mph /  29km/h 62.6% 0.00in /  0mm 199 W/m2
09:34 43.4 °F /  6.3 °C 31.7 °F /  -0.2 °C 30.06in /  1017.8hPa WNW 5.1mph /  8.2km/h 18mph /  29km/h 63% 0.00in /  0mm 127 W/m2
09:39 43.4 °F /  6.3 °C 31.7 °F /  -0.2 °C 30.05in /  1017.5hPa West 1.9mph /  3.1km/h 14mph /  22.5km/h 63% 0.00in /  0mm 163 W/m2
09:44 43.6 °F /  6.4 °C 31.8 °F /  -0.1 °C 30.05in /  1017.5hPa West 3.6mph /  5.8km/h 14mph /  22.5km/h 62.8% 0.00in /  0mm 244 W/m2
09:49 43.9 °F /  6.6 °C 31.9 °F /  -0.1 °C 30.05in /  1017.5hPa WNW 3.1mph /  5km/h 14mph /  22.5km/h 62.5% 0.00in /  0mm 341 W/m2
09:54 44.3 °F /  6.8 °C 32 °F /  0 °C 30.05in /  1017.5hPa NW 5.5mph /  8.9km/h 16mph /  25.7km/h 61.8% 0.00in /  0mm 336 W/m2
09:59 44.6 °F /  7 °C 31.8 °F /  -0.1 °C 30.06in /  1017.8hPa WNW 7.2mph /  11.6km/h 16mph /  25.7km/h 60.5% 0.00in /  0mm 350 W/m2
10:04 44.9 °F /  7.2 °C 31.1 °F /  -0.5 °C 30.06in /  1017.8hPa WNW 11mph /  17.7km/h 20mph /  32.2km/h 58.3% 0.00in /  0mm 478 W/m2
10:09 45.2 °F /  7.3 °C 31.3 °F /  -0.4 °C 30.06in /  1017.8hPa WNW 7.4mph /  11.9km/h 20mph /  32.2km/h 58% 0.00in /  0mm 476 W/m2
10:14 45.7 °F /  7.6 °C 31.5 °F /  -0.3 °C 30.06in /  1017.8hPa WNW 7mph /  11.3km/h 20mph /  32.2km/h 57.5% 0.00in /  0mm 454 W/m2
10:19 46.1 °F /  7.8 °C 32 °F /  0 °C 30.06in /  1017.8hPa WNW 3.9mph /  6.3km/h 20mph /  32.2km/h 57.7% 0.00in /  0mm 499 W/m2
10:24 46.7 °F /  8.2 °C 32.2 °F /  0.1 °C 30.06in /  1017.8hPa WNW 5.6mph /  9km/h 20mph /  32.2km/h 56.8% 0.00in /  0mm 506 W/m2
10:29 47.3 °F /  8.5 °C 32.6 °F /  0.3 °C 30.06in /  1017.8hPa WNW 3.4mph /  5.5km/h 20mph /  32.2km/h 56.6% 0.00in /  0mm 512 W/m2
10:34 47.9 °F /  8.8 °C 32.5 °F /  0.3 °C 30.06in /  1017.8hPa WNW 3.2mph /  5.1km/h 20mph /  32.2km/h 55% 0.00in /  0mm 515 W/m2
10:39 48.2 °F /  9 °C 32.7 °F /  0.4 °C 30.05in /  1017.5hPa WNW 5.7mph /  9.2km/h 13mph /  20.9km/h 54.7% 0.00in /  0mm 441 W/m2
10:44 48.2 °F /  9 °C 31.9 °F /  -0.1 °C 30.05in /  1017.5hPa WNW 5.8mph /  9.3km/h 13mph /  20.9km/h 53.1% 0.00in /  0mm 216 W/m2
10:49 47.9 °F /  8.8 °C 31.9 °F /  -0.1 °C 30.05in /  1017.5hPa NW 3.8mph /  6.1km/h 13mph /  20.9km/h 53.6% 0.00in /  0mm 158 W/m2
10:54 47.8 °F /  8.8 °C 32 °F /  0 °C 30.05in /  1017.5hPa NW 2.2mph /  3.5km/h 13mph /  20.9km/h 54.1% 0.00in /  0mm 151 W/m2
10:59 47.8 °F /  8.8 °C 32 °F /  0 °C 30.05in /  1017.5hPa WNW 2.9mph /  4.7km/h 13mph /  20.9km/h 54.1% 0.00in /  0mm 176 W/m2
11:04 47.9 °F /  8.8 °C 32.5 °F /  0.3 °C 30.05in /  1017.5hPa NW 1.2mph /  1.9km/h 13mph /  20.9km/h 54.8% 0.00in /  0mm 411 W/m2
11:09 48.2 °F /  9 °C 32.4 °F /  0.2 °C 30.05in /  1017.5hPa WNW 6.5mph /  10.5km/h 16mph /  25.7km/h 54.2% 0.00in /  0mm 446 W/m2
11:14 48 °F /  8.9 °C 31.4 °F /  -0.3 °C 30.05in /  1017.5hPa West 4.4mph /  7.1km/h 16mph /  25.7km/h 52.3% 0.00in /  0mm 221 W/m2
11:19 48 °F /  8.9 °C 31.3 °F /  -0.4 °C 30.05in /  1017.5hPa West 5.2mph /  8.4km/h 16mph /  25.7km/h 52.2% 0.00in /  0mm 322 W/m2
11:24 47.9 °F /  8.8 °C 31.1 °F /  -0.5 °C 30.05in /  1017.5hPa West 5.4mph /  8.7km/h 16mph /  25.7km/h 52% 0.00in /  0mm 322 W/m2
11:29 47.9 °F /  8.8 °C 31.1 °F /  -0.5 °C 30.05in /  1017.5hPa West 6.5mph /  10.5km/h 16mph /  25.7km/h 52% 0.00in /  0mm 213 W/m2
11:34 47.9 °F /  8.8 °C 31.4 °F /  -0.3 °C 30.04in /  1017.2hPa WNW 4mph /  6.4km/h 16mph /  25.7km/h 52.6% 0.00in /  0mm 274 W/m2
11:39 48 °F /  8.9 °C 32 °F /  0 °C 30.05in /  1017.5hPa WNW 3.6mph /  5.8km/h 13mph /  20.9km/h 53.7% 0.00in /  0mm 171 W/m2
11:44 48.3 °F /  9.1 °C 32.1 °F /  0.1 °C 30.05in /  1017.5hPa WNW 5.2mph /  8.4km/h 13mph /  20.9km/h 53.2% 0.00in /  0mm 181 W/m2
11:49 48.2 °F /  9 °C 30.9 °F /  -0.6 °C 30.05in /  1017.5hPa WNW 5.4mph /  8.7km/h 17mph /  27.4km/h 50.9% 0.00in /  0mm 181 W/m2
11:54 48 °F /  8.9 °C 31.4 °F /  -0.3 °C 30.05in /  1017.5hPa NW 3.1mph /  5km/h 17mph /  27.4km/h 52.4% 0.00in /  0mm 202 W/m2
11:59 48 °F /  8.9 °C 31.3 °F /  -0.4 °C 30.04in /  1017.2hPa NW 4.8mph /  7.7km/h 17mph /  27.4km/h 52.1% 0.00in /  0mm 202 W/m2
12:09 48.6 °F /  9.2 °C 32.5 °F /  0.3 °C 30.04in /  1017.2hPa NW 2.1mph /  3.4km/h 11mph /  17.7km/h 53.5% 0.00in /  0mm 98 W/m2
12:14 49 °F /  9.4 °C 32 °F /  0 °C 30.04in /  1017.2hPa WNW 3.4mph /  5.5km/h 11mph /  17.7km/h 51.8% 0.00in /  0mm 294 W/m2
12:19 49.3 °F /  9.6 °C 32.4 °F /  0.2 °C 30.04in /  1017.2hPa NW 2.8mph /  4.5km/h 11mph /  17.7km/h 52.1% 0.00in /  0mm 441 W/m2
12:24 49.4 °F /  9.7 °C 32.1 °F /  0.1 °C 30.04in /  1017.2hPa NW 3.5mph /  5.6km/h 12mph /  19.3km/h 51% 0.00in /  0mm 441 W/m2
12:29 49.6 °F /  9.8 °C 32.3 °F /  0.2 °C 30.04in /  1017.2hPa NW 4.4mph /  7.1km/h 12mph /  19.3km/h 51.2% 0.00in /  0mm 350 W/m2
12:34 49.7 °F /  9.8 °C 32 °F /  0 °C 30.04in /  1017.2hPa WNW 2.4mph /  3.9km/h 12mph /  19.3km/h 50.3% 0.00in /  0mm 218 W/m2
12:39 49.6 °F /  9.8 °C 32.1 °F /  0.1 °C 30.04in /  1017.2hPa WNW 2.2mph /  3.5km/h 10mph /  16.1km/h 50.7% 0.00in /  0mm 218 W/m2
12:44 49.5 °F /  9.7 °C 32 °F /  0 °C 30.04in /  1017.2hPa WNW 4.1mph /  6.6km/h 11mph /  17.7km/h 50.7% 0.00in /  0mm 155 W/m2
12:49 49.1 °F /  9.5 °C 31.5 °F /  -0.3 °C 30.04in /  1017.2hPa WNW 4.8mph /  7.7km/h 13mph /  20.9km/h 50.5% 0.00in /  0mm 190 W/m2
12:54 48.7 °F /  9.3 °C 31.4 °F /  -0.3 °C 30.04in /  1017.2hPa WNW 2mph /  3.2km/h 13mph /  20.9km/h 51% 0.00in /  0mm 250 W/m2
12:59 48.8 °F /  9.3 °C 32.2 °F /  0.1 °C 30.04in /  1017.2hPa NW 2.3mph /  3.7km/h 13mph /  20.9km/h 52.5% 0.00in /  0mm 209 W/m2
13:04 49 °F /  9.4 °C 32.1 °F /  0.1 °C 30.04in /  1017.2hPa NW 2.3mph /  3.7km/h 13mph /  20.9km/h 51.8% 0.00in /  0mm 155 W/m2
13:09 49.1 °F /  9.5 °C 31.5 °F /  -0.3 °C 30.04in /  1017.2hPa NW 4.6mph /  7.4km/h 12mph /  19.3km/h 50.4% 0.00in /  0mm 199 W/m2
13:14 49 °F /  9.4 °C 31.2 °F /  -0.4 °C 30.04in /  1017.2hPa WNW 3.7mph /  6km/h 12mph /  19.3km/h 50% 0.00in /  0mm 141 W/m2
13:19 48.7 °F /  9.3 °C 31.4 °F /  -0.3 °C 30.04in /  1017.2hPa NW 3.6mph /  5.8km/h 12mph /  19.3km/h 51% 0.00in /  0mm 313 W/m2
13:24 48.7 °F /  9.3 °C 31.4 °F /  -0.3 °C 30.04in /  1017.2hPa WNW 3.8mph /  6.1km/h 12mph /  19.3km/h 51% 0.00in /  0mm 352 W/m2
13:29 48.9 °F /  9.4 °C 31.8 °F /  -0.1 °C 30.04in /  1017.2hPa WNW 2.8mph /  4.5km/h 12mph /  19.3km/h 51.6% 0.00in /  0mm 352 W/m2
13:34 49.1 °F /  9.5 °C 31.8 °F /  -0.1 °C 30.04in /  1017.2hPa WNW 4.6mph /  7.4km/h 14mph /  22.5km/h 51.1% 0.00in /  0mm 158 W/m2
13:39 49.2 °F /  9.6 °C 32 °F /  0 °C 30.04in /  1017.2hPa WNW 2.6mph /  4.2km/h 14mph /  22.5km/h 51.2% 0.00in /  0mm 160 W/m2
13:44 49.2 °F /  9.6 °C 31.9 °F /  -0.1 °C 30.04in /  1017.2hPa WNW 4.6mph /  7.4km/h 14mph /  22.5km/h 51% 0.00in /  0mm 176 W/m2
13:49 49 °F /  9.4 °C 31.8 °F /  -0.1 °C 30.04in /  1017.2hPa NW 3.9mph /  6.3km/h 14mph /  22.5km/h 51.2% 0.00in /  0mm 200 W/m2
13:54 48.8 °F /  9.3 °C 32 °F /  0 °C 30.04in /  1017.2hPa NW 3.7mph /  6km/h 14mph /  22.5km/h 52% 0.00in /  0mm 127 W/m2
13:59 48.6 °F /  9.2 °C 31.8 °F /  -0.1 °C 30.04in /  1017.2hPa WNW 2.5mph /  4km/h 14mph /  22.5km/h 52% 0.00in /  0mm 123 W/m2
14:04 48.5 °F /  9.2 °C 31.9 °F /  -0.1 °C 30.04in /  1017.2hPa WNW 0.9mph /  1.4km/h 14mph /  22.5km/h 52.5% 0.00in /  0mm 163 W/m2
14:09 48.4 °F /  9.1 °C 32 °F /  0 °C 30.04in /  1017.2hPa NW 3.9mph /  6.3km/h 10mph /  16.1km/h 52.9% 0.00in /  0mm 118 W/m2
14:14 48.2 °F /  9 °C 31.9 °F /  -0.1 °C 30.04in /  1017.2hPa WNW 3.6mph /  5.8km/h 11mph /  17.7km/h 53% 0.00in /  0mm 111 W/m2
14:19 48 °F /  8.9 °C 31.8 °F /  -0.1 °C 30.04in /  1017.2hPa WNW 3.2mph /  5.1km/h 11mph /  17.7km/h 53.2% 0.00in /  0mm 72 W/m2
14:24 47.9 °F /  8.8 °C 31.9 °F /  -0.1 °C 30.04in /  1017.2hPa WNW 0.9mph /  1.4km/h 11mph /  17.7km/h 53.6% 0.00in /  0mm 51 W/m2
14:29 47.7 °F /  8.7 °C 32.2 °F /  0.1 °C 30.04in /  1017.2hPa West 1.6mph /  2.6km/h 11mph /  17.7km/h 54.5% 0.00in /  0mm 62 W/m2
14:34 47.6 °F /  8.7 °C 31.8 °F /  -0.1 °C 30.05in /  1017.5hPa WNW 3.3mph /  5.3km/h 11mph /  17.7km/h 54% 0.00in /  0mm 56 W/m2
14:39 47.5 °F /  8.6 °C 31.8 °F /  -0.1 °C 30.05in /  1017.5hPa West 2.5mph /  4km/h 9mph /  14.5km/h 54.3% 0.00in /  0mm 56 W/m2
14:44 47.6 °F /  8.7 °C 32.2 °F /  0.1 °C 30.05in /  1017.5hPa WNW 2mph /  3.2km/h 9mph /  14.5km/h 55% 0.00in /  0mm 51 W/m2
14:49 47.7 °F /  8.7 °C 32.1 °F /  0.1 °C 30.05in /  1017.5hPa West 4.8mph /  7.7km/h 14mph /  22.5km/h 54.5% 0.00in /  0mm 35 W/m2
14:54 47.8 °F /  8.8 °C 31.3 °F /  -0.4 °C 30.05in /  1017.5hPa West 4.8mph /  7.7km/h 15mph /  24.1km/h 52.6% 0.00in /  0mm 28 W/m2
14:59 47.8 °F /  8.8 °C 30.9 °F /  -0.6 °C 30.05in /  1017.5hPa West 5.3mph /  8.5km/h 15mph /  24.1km/h 51.8% 0.00in /  0mm 26 W/m2
15:04 47.7 °F /  8.7 °C 31 °F /  -0.6 °C 30.05in /  1017.5hPa West 4.3mph /  6.9km/h 15mph /  24.1km/h 52.1% 0.00in /  0mm 25 W/m2
15:09 47.6 °F /  8.7 °C 31 °F /  -0.6 °C 30.05in /  1017.5hPa WNW 3.2mph /  5.1km/h 13mph /  20.9km/h 52.2% 0.00in /  0mm 25 W/m2
15:14 47.5 °F /  8.6 °C 31.2 °F /  -0.4 °C 30.06in /  1017.8hPa WNW 2mph /  3.2km/h 13mph /  20.9km/h 53% 0.00in /  0mm 33 W/m2
15:19 47.3 °F /  8.5 °C 31.3 °F /  -0.4 °C 30.06in /  1017.8hPa WNW 0.4mph /  0.6km/h 13mph /  20.9km/h 53.6% 0.00in /  0mm 40 W/m2
15:24 47.2 °F /  8.4 °C 31.1 °F /  -0.5 °C 30.06in /  1017.8hPa WNW 1.7mph /  2.7km/h 13mph /  20.9km/h 53.5% 0.00in /  0mm 37 W/m2
15:29 47 °F /  8.3 °C 31 °F /  -0.6 °C 30.06in /  1017.8hPa West 1.7mph /  2.7km/h 13mph /  20.9km/h 53.5% 0.00in /  0mm 37 W/m2
15:34 46.9 °F /  8.3 °C 31 °F /  -0.6 °C 30.06in /  1017.8hPa West 1.4mph /  2.3km/h 13mph /  20.9km/h 53.5% 0.00in /  0mm 33 W/m2
15:39 46.9 °F /  8.3 °C 30.8 °F /  -0.7 °C 30.06in /  1017.8hPa West 0.5mph /  0.8km/h 6mph /  9.7km/h 53.3% 0.00in /  0mm 33 W/m2
15:44 46.9 °F /  8.3 °C 31.1 °F /  -0.5 °C 30.07in /  1018.2hPa West 0.4mph /  0.6km/h 6mph /  9.7km/h 54% 0.00in /  0mm 32 W/m2
15:49 46.9 °F /  8.3 °C 31.2 °F /  -0.4 °C 30.06in /  1017.8hPa West 0.9mph /  1.4km/h 6mph /  9.7km/h 54.2% 0.00in /  0mm 26 W/m2
15:54 46.9 °F /  8.3 °C 31.1 °F /  -0.5 °C 30.07in /  1018.2hPa West 0.8mph /  1.3km/h 6mph /  9.7km/h 54% 0.00in /  0mm 25 W/m2
15:59 47 °F /  8.3 °C 31.3 °F /  -0.4 °C 30.07in /  1018.2hPa Calm   6mph /  9.7km/h 54.2% 0.00in /  0mm 23 W/m2
16:00 47 °F /  8.3 °C 31.7 °F /  -0.2 °C 30.06in /  1017.8hPa WNW 2mph /  3.2km/h 6mph /  9.7km/h 55% 0.00in /  0mm 21 W/m2
16:09 46.9 °F /  8.3 °C 30.9 °F /  -0.6 °C 30.06in /  1017.8hPa West 1.7mph /  2.7km/h 10mph /  16.1km/h 53.4% 0.00in /  0mm 12 W/m2
16:14 46.9 °F /  8.3 °C 30.7 °F /  -0.7 °C 30.07in /  1018.2hPa West 0.5mph /  0.8km/h 10mph /  16.1km/h 53.1% 0.00in /  0mm 12 W/m2
16:19 46.7 °F /  8.2 °C 30.8 °F /  -0.7 °C 30.07in /  1018.2hPa West 1mph /  1.6km/h 10mph /  16.1km/h 53.6% 0.00in /  0mm 9 W/m2
16:24 46.6 °F /  8.1 °C 31.1 °F /  -0.5 °C 30.07in /  1018.2hPa WSW 0.2mph /  0.3km/h 10mph /  16.1km/h 54.5% 0.00in /  0mm 5 W/m2
16:29 46.5 °F /  8.1 °C 31.2 °F /  -0.4 °C 30.07in /  1018.2hPa WSW 0.1mph /  0.2km/h 10mph /  16.1km/h 55% 0.00in /  0mm 0 W/m2
16:34 46.4 °F /  8 °C 31.1 °F /  -0.5 °C 30.07in /  1018.2hPa WSW 0.5mph /  0.8km/h 10mph /  16.1km/h 55% 0.00in /  0mm 0 W/m2
16:39 46.3 °F /  7.9 °C 31.1 °F /  -0.5 °C 30.08in /  1018.5hPa WSW 0.1mph /  0.2km/h 7mph /  11.3km/h 55.2% 0.00in /  0mm 0 W/m2
16:44 46.1 °F /  7.8 °C 31.3 °F /  -0.4 °C 30.08in /  1018.5hPa WSW 0.3mph /  0.5km/h 7mph /  11.3km/h 56% 0.00in /  0mm 0 W/m2
16:49 46 °F /  7.8 °C 31.2 °F /  -0.4 °C 30.08in /  1018.5hPa WSW 0.2mph /  0.3km/h 7mph /  11.3km/h 56% 0.00in /  0mm 0 W/m2
16:54 46 °F /  7.8 °C 31.2 °F /  -0.4 °C 30.09in /  1018.8hPa Calm   7mph /  11.3km/h 56% 0.00in /  0mm 0 W/m2
16:59 45.9 °F /  7.7 °C 31.3 °F /  -0.4 °C 30.09in /  1018.8hPa Calm   7mph /  11.3km/h 56.4% 0.00in /  0mm 0 W/m2
17:04 45.8 °F /  7.7 °C 31 °F /  -0.6 °C 30.09in /  1018.8hPa Calm   7mph /  11.3km/h 56.1% 0.00in /  0mm 0 W/m2
17:09 45.6 °F /  7.6 °C 30.8 °F /  -0.7 °C 30.09in /  1018.8hPa Calm   1mph /  1.6km/h 56% 0.00in /  0mm 0 W/m2
17:14 45.4 °F /  7.4 °C 30.7 °F /  -0.7 °C 30.10in /  1019.2hPa WSW 0.1mph /  0.2km/h 2mph /  3.2km/h 56% 0.00in /  0mm 0 W/m2
17:19 45.2 °F /  7.3 °C 30.5 °F /  -0.8 °C 30.10in /  1019.2hPa Calm   2mph /  3.2km/h 56% 0.00in /  0mm 0 W/m2
17:24 45.1 °F /  7.3 °C 30.6 °F /  -0.8 °C 30.10in /  1019.2hPa Calm   2mph /  3.2km/h 56.6% 0.00in /  0mm 0 W/m2
17:29 44.9 °F /  7.2 °C 30.8 °F /  -0.7 °C 30.10in /  1019.2hPa Calm   2mph /  3.2km/h 57.4% 0.00in /  0mm 0 W/m2
17:34 44.7 °F /  7.1 °C 30.8 °F /  -0.7 °C 30.10in /  1019.2hPa Calm   2mph /  3.2km/h 58% 0.00in /  0mm 0 W/m2
17:39 44.4 °F /  6.9 °C 30.6 °F /  -0.8 °C 30.11in /  1019.5hPa Calm     58% 0.00in /  0mm 0 W/m2
17:44 44.2 °F /  6.8 °C 30.5 °F /  -0.8 °C 30.11in /  1019.5hPa Calm     58.4% 0.00in /  0mm 0 W/m2
17:49 44 °F /  6.7 °C 30.6 °F /  -0.8 °C 30.11in /  1019.5hPa Calm     59% 0.00in /  0mm 0 W/m2
17:54 43.9 °F /  6.6 °C 30.9 °F /  -0.6 °C 30.11in /  1019.5hPa Calm     60% 0.00in /  0mm 0 W/m2
17:59 43.8 °F /  6.6 °C 31.2 °F /  -0.4 °C 30.11in /  1019.5hPa Calm     60.8% 0.00in /  0mm 0 W/m2
18:04 43.7 °F /  6.5 °C 30.9 °F /  -0.6 °C 30.11in /  1019.5hPa Calm     60.6% 0.00in /  0mm 0 W/m2
18:09 43.6 °F /  6.4 °C 31 °F /  -0.6 °C 30.11in /  1019.5hPa Calm     60.8% 0.00in /  0mm 0 W/m2
18:14 43.5 °F /  6.4 °C 30.9 °F /  -0.6 °C 30.11in /  1019.5hPa Calm     61% 0.00in /  0mm 0 W/m2
18:19 43.3 °F /  6.3 °C 30.4 °F /  -0.9 °C 30.12in /  1019.9hPa Calm     59.9% 0.00in /  0mm 0 W/m2
18:24 43.2 °F /  6.2 °C 30 °F /  -1.1 °C 30.11in /  1019.5hPa Calm     59.3% 0.00in /  0mm 0 W/m2
18:29 43.1 °F /  6.2 °C 30.2 °F /  -1 °C 30.12in /  1019.9hPa WSW 0.1mph /  0.2km/h 2mph /  3.2km/h 60.1% 0.00in /  0mm 0 W/m2
18:34 42.9 °F /  6.1 °C 30.4 °F /  -0.9 °C 30.12in /  1019.9hPa Calm   2mph /  3.2km/h 61% 0.00in /  0mm 0 W/m2
18:39 42.7 °F /  5.9 °C 30.2 °F /  -1 °C 30.12in /  1019.9hPa Calm     61% 0.00in /  0mm 0 W/m2
18:44 42.5 °F /  5.8 °C 30 °F /  -1.1 °C 30.12in /  1019.9hPa Calm     61% 0.00in /  0mm 0 W/m2
18:49 42.3 °F /  5.7 °C 29.8 °F /  -1.2 °C 30.12in /  1019.9hPa Calm     61% 0.00in /  0mm 0 W/m2
18:54 42 °F /  5.6 °C 29.8 °F /  -1.2 °C 30.13in /  1020.2hPa Calm     61.5% 0.00in /  0mm 0 W/m2
18:59 41.9 °F /  5.5 °C 29.8 °F /  -1.2 °C 30.13in /  1020.2hPa WSW 0.1mph /  0.2km/h 2mph /  3.2km/h 62% 0.00in /  0mm 0 W/m2
19:04 41.7 °F /  5.4 °C 29.8 °F /  -1.2 °C 30.14in /  1020.5hPa Calm   2mph /  3.2km/h 62.4% 0.00in /  0mm 0 W/m2
19:09 41.5 °F /  5.3 °C 29.8 °F /  -1.2 °C 30.14in /  1020.5hPa Calm   1mph /  1.6km/h 63% 0.00in /  0mm 0 W/m2
19:14 41.3 °F /  5.2 °C 29.7 °F /  -1.3 °C 30.14in /  1020.5hPa Calm   1mph /  1.6km/h 63% 0.00in /  0mm 0 W/m2
19:19 41.2 °F /  5.1 °C 29.6 °F /  -1.3 °C 30.14in /  1020.5hPa Calm   1mph /  1.6km/h 63% 0.00in /  0mm 0 W/m2
19:24 41.1 °F /  5.1 °C 29.7 °F /  -1.3 °C 30.15in /  1020.9hPa Calm   1mph /  1.6km/h 63.5% 0.00in /  0mm 0 W/m2
19:29 41 °F /  5 °C 29.7 °F /  -1.3 °C 30.15in /  1020.9hPa Calm   1mph /  1.6km/h 64% 0.00in /  0mm 0 W/m2
19:34 40.8 °F /  4.9 °C 29.9 °F /  -1.2 °C 30.15in /  1020.9hPa Calm   1mph /  1.6km/h 64.8% 0.00in /  0mm 0 W/m2
19:39 40.6 °F /  4.8 °C 29.9 °F /  -1.2 °C 30.16in /  1021.2hPa Calm     65.3% 0.00in /  0mm 0 W/m2
19:44 40.5 °F /  4.7 °C 30 °F /  -1.1 °C 30.16in /  1021.2hPa Calm     66% 0.00in /  0mm 0 W/m2
19:49 40.4 °F /  4.7 °C 30 °F /  -1.1 °C 30.16in /  1021.2hPa WSW 0.2mph /  0.3km/h 2mph /  3.2km/h 66% 0.00in /  0mm 0 W/m2
19:54 40.3 °F /  4.6 °C 30.1 °F /  -1.1 °C 30.16in /  1021.2hPa WSW 0.1mph /  0.2km/h 2mph /  3.2km/h 66.6% 0.00in /  0mm 0 W/m2
19:59 40.1 °F /  4.5 °C 29.8 °F /  -1.2 °C 30.16in /  1021.2hPa Calm   2mph /  3.2km/h 66.3% 0.00in /  0mm 0 W/m2
20:09 39.8 °F /  4.3 °C 29.8 °F /  -1.2 °C 30.16in /  1021.2hPa Calm     67% 0.00in /  0mm 0 W/m2
20:14 39.7 °F /  4.3 °C 29.8 °F /  -1.2 °C 30.17in /  1021.6hPa Calm     67.4% 0.00in /  0mm 0 W/m2
20:19 39.5 °F /  4.2 °C 29.7 °F /  -1.3 °C 30.17in /  1021.6hPa Calm     67.7% 0.00in /  0mm 0 W/m2
20:24 39.3 °F /  4.1 °C 29.6 °F /  -1.3 °C 30.17in /  1021.6hPa Calm     68% 0.00in /  0mm 0 W/m2
20:29 39 °F /  3.9 °C 29.7 °F /  -1.3 °C 30.17in /  1021.6hPa Calm     69% 0.00in /  0mm 0 W/m2
20:34 38.8 °F /  3.8 °C 29.7 °F /  -1.3 °C 30.17in /  1021.6hPa Calm     69.6% 0.00in /  0mm 0 W/m2
20:39 38.6 °F /  3.7 °C 29.9 °F /  -1.2 °C 30.17in /  1021.6hPa Calm     70.7% 0.00in /  0mm 0 W/m2
20:44 38.5 °F /  3.6 °C 29.9 °F /  -1.2 °C 30.17in /  1021.6hPa Calm     71% 0.00in /  0mm 0 W/m2
20:49 38.3 °F /  3.5 °C 29.9 °F /  -1.2 °C 30.17in /  1021.6hPa Calm     71.3% 0.00in /  0mm 0 W/m2
20:54 38.2 °F /  3.4 °C 30 °F /  -1.1 °C 30.17in /  1021.6hPa Calm     72% 0.00in /  0mm 0 W/m2
20:59 38 °F /  3.3 °C 29.8 °F /  -1.2 °C 30.17in /  1021.6hPa Calm     72% 0.00in /  0mm 0 W/m2
21:04 37.9 °F /  3.3 °C 29.8 °F /  -1.2 °C 30.18in /  1021.9hPa Calm     72.4% 0.00in /  0mm 0 W/m2
21:09 37.7 °F /  3.2 °C 29.9 °F /  -1.2 °C 30.18in /  1021.9hPa Calm     73% 0.00in /  0mm 0 W/m2
21:14 37.5 °F /  3.1 °C 30 °F /  -1.1 °C 30.18in /  1021.9hPa Calm     74% 0.00in /  0mm 0 W/m2
21:19 37.3 °F /  2.9 °C 29.8 °F /  -1.2 °C 30.18in /  1021.9hPa Calm     74% 0.00in /  0mm 0 W/m2
21:24 37.1 °F /  2.8 °C 29.6 °F /  -1.3 °C 30.18in /  1021.9hPa Calm     74.1% 0.00in /  0mm 0 W/m2
21:29 36.9 °F /  2.7 °C 29.7 °F /  -1.3 °C 30.19in /  1022.2hPa Calm     75% 0.00in /  0mm 0 W/m2
21:34 36.6 °F /  2.6 °C 29.7 °F /  -1.3 °C 30.19in /  1022.2hPa WSW 0.2mph /  0.3km/h 2mph /  3.2km/h 75.9% 0.00in /  0mm 0 W/m2
21:39 36.2 °F /  2.3 °C 29.7 °F /  -1.3 °C 30.19in /  1022.2hPa Calm   2mph /  3.2km/h 76.9% 0.00in /  0mm 0 W/m2
21:44 36 °F /  2.2 °C 29.5 °F /  -1.4 °C 30.18in /  1021.9hPa Calm   2mph /  3.2km/h 77% 0.00in /  0mm 0 W/m2
21:49 35.8 °F /  2.1 °C 29.3 °F /  -1.5 °C 30.18in /  1021.9hPa Calm   2mph /  3.2km/h 77% 0.00in /  0mm 0 W/m2
21:54 35.6 °F /  2 °C 29.2 °F /  -1.6 °C 30.18in /  1021.9hPa Calm   2mph /  3.2km/h 77.1% 0.00in /  0mm 0 W/m2
21:59 35.5 °F /  1.9 °C 29.3 °F /  -1.5 °C 30.19in /  1022.2hPa Calm   2mph /  3.2km/h 78% 0.00in /  0mm 0 W/m2
22:04 35.3 °F /  1.8 °C 29.2 °F /  -1.6 °C 30.19in /  1022.2hPa Calm   2mph /  3.2km/h 78.1% 0.00in /  0mm 0 W/m2
22:09 35.2 °F /  1.8 °C 29.3 °F /  -1.5 °C 30.19in /  1022.2hPa Calm     79% 0.00in /  0mm 0 W/m2
22:14 35 °F /  1.7 °C 29.3 °F /  -1.5 °C 30.19in /  1022.2hPa Calm     79.2% 0.00in /  0mm 0 W/m2
22:19 34.9 °F /  1.6 °C 29.4 °F /  -1.4 °C 30.19in /  1022.2hPa Calm     80% 0.00in /  0mm 0 W/m2
22:24 34.8 °F /  1.6 °C 29.3 °F /  -1.5 °C 30.19in /  1022.2hPa Calm     80.2% 0.00in /  0mm 0 W/m2
22:29 34.7 °F /  1.5 °C 29.4 °F /  -1.4 °C 30.19in /  1022.2hPa Calm     80.8% 0.00in /  0mm 0 W/m2
22:34 34.6 °F /  1.4 °C 29.5 °F /  -1.4 °C 30.19in /  1022.2hPa Calm     81.3% 0.00in /  0mm 0 W/m2
22:39 34.6 °F /  1.4 °C 29.7 °F /  -1.3 °C 30.20in /  1022.6hPa WSW 0.3mph /  0.5km/h 2mph /  3.2km/h 82% 0.00in /  0mm 0 W/m2
22:44 34.4 °F /  1.3 °C 29.2 °F /  -1.6 °C 30.20in /  1022.6hPa Calm   2mph /  3.2km/h 81.1% 0.00in /  0mm 0 W/m2
22:49 34.1 °F /  1.2 °C 29.1 °F /  -1.6 °C 30.20in /  1022.6hPa Calm   2mph /  3.2km/h 81.9% 0.00in /  0mm 0 W/m2
22:54 33.9 °F /  1.1 °C 29.1 °F /  -1.6 °C 30.21in /  1022.9hPa Calm   2mph /  3.2km/h 82.3% 0.00in /  0mm 0 W/m2
22:59 33.7 °F /  0.9 °C 29.1 °F /  -1.6 °C 30.21in /  1022.9hPa Calm   2mph /  3.2km/h 83% 0.00in /  0mm 0 W/m2
23:00 33.7 °F /  0.9 °C 29.1 °F /  -1.6 °C 30.20in /  1022.6hPa Calm   2mph /  3.2km/h 83% 0.00in /  0mm 0 W/m2
23:09 33.6 °F /  0.9 °C 29.3 °F /  -1.5 °C 30.21in /  1022.9hPa Calm     84.1% 0.00in /  0mm 0 W/m2
23:14 33.7 °F /  0.9 °C 29.7 °F /  -1.3 °C 30.21in /  1022.9hPa Calm     85% 0.00in /  0mm 0 W/m2
23:19 33.8 °F /  1 °C 29.8 °F /  -1.2 °C 30.21in /  1022.9hPa Calm     85% 0.00in /  0mm 0 W/m2
23:24 33.9 °F /  1.1 °C 29.9 °F /  -1.2 °C 30.21in /  1022.9hPa Calm     85% 0.00in /  0mm 0 W/m2
23:29 34 °F /  1.1 °C 30 °F /  -1.1 °C 30.22in /  1023.2hPa Calm     85% 0.00in /  0mm 0 W/m2
23:34 34 °F /  1.1 °C 30 °F /  -1.1 °C 30.22in /  1023.2hPa Calm     85% 0.00in /  0mm 0 W/m2
23:39 33.8 °F /  1 °C 29.8 °F /  -1.2 °C 30.22in /  1023.2hPa Calm     85% 0.00in /  0mm 0 W/m2
23:44 33.7 °F /  0.9 °C 29.7 °F /  -1.3 °C 30.22in /  1023.2hPa Calm     85.1% 0.00in /  0mm 0 W/m2
23:49 33.6 °F /  0.9 °C 29.8 °F /  -1.2 °C 30.22in /  1023.2hPa Calm     86% 0.00in /  0mm 0 W/m2
23:54 33.5 °F /  0.8 °C 29.9 °F /  -1.2 °C 30.22in /  1023.2hPa Calm     86.4% 0.00in /  0mm 0 W/m2
23:59 33.5 °F /  0.8 °C 30 °F /  -1.1 °C 30.22in /  1023.2hPa Calm     87% 0.00in /  0mm 0 W/m2
Hartford County Weather
Compliments of Weather Underground - 2 mb